createdAt,value
2023-02-16T00:00:48.744Z,139.50
2023-02-16T00:03:36.129Z,163.40
2023-02-16T00:06:04.414Z,131.60
2023-02-16T00:08:32.764Z,122.70
2023-02-16T00:11:19.528Z,124.00
2023-02-16T00:13:48.280Z,121.90
2023-02-16T00:16:22.835Z,119.10
2023-02-16T00:18:53.183Z,128.90
2023-02-16T00:21:22.280Z,110.30
2023-02-16T00:23:51.029Z,107.60
2023-02-16T00:26:26.015Z,112.50
2023-02-16T00:29:00.934Z,157.90
2023-02-16T00:31:33.138Z,135.50
2023-02-16T00:34:21.950Z,117.00
2023-02-16T00:36:50.161Z,114.20
2023-02-16T00:39:18.836Z,114.50
2023-02-16T00:41:50.634Z,104.20
2023-02-16T00:44:30.875Z,109.30
2023-02-16T00:47:37.217Z,107.40
2023-02-16T00:50:27.596Z,116.00
2023-02-16T00:52:59.577Z,104.30
2023-02-16T00:55:31.881Z,116.40
2023-02-16T00:58:08.544Z,118.40
2023-02-16T01:00:50.819Z,101.00
2023-02-16T01:03:29.418Z,108.90
2023-02-16T01:06:18.424Z,187.60
2023-02-16T01:09:05.285Z,102.10
2023-02-16T01:11:34.718Z,101.00
2023-02-16T01:14:03.083Z,105.80
2023-02-16T01:16:41.046Z,102.70
2023-02-16T01:19:12.872Z,99.70
2023-02-16T01:21:41.195Z,104.00
2023-02-16T01:24:09.640Z,83.30
2023-02-16T01:26:42.448Z,95.80
2023-02-16T01:29:21.715Z,95.70
2023-02-16T01:31:53.615Z,99.30
2023-02-16T01:34:22.291Z,97.50
2023-02-16T01:36:50.698Z,95.00
2023-02-16T01:39:21.288Z,100.60
2023-02-16T01:42:21.508Z,196.20
2023-02-16T01:45:08.087Z,97.30
2023-02-16T01:47:49.749Z,98.00
2023-02-16T01:50:22.092Z,100.50
2023-02-16T01:53:01.654Z,85.50
2023-02-16T01:55:38.394Z,105.40
2023-02-16T01:58:45.672Z,96.40
2023-02-16T02:01:57.099Z,102.00
2023-02-16T02:05:03.290Z,101.30
2023-02-16T02:07:50.793Z,102.70
2023-02-16T02:10:53.565Z,94.10
2023-02-16T02:13:37.343Z,91.80
2023-02-16T02:16:08.503Z,85.00
2023-02-16T02:18:39.427Z,87.50
2023-02-16T02:22:17.214Z,103.40
2023-02-16T02:25:15.029Z,71.80
2023-02-16T02:28:26.336Z,80.00
2023-02-16T02:31:28.036Z,77.80
2023-02-16T02:34:15.563Z,78.20
2023-02-16T02:37:40.528Z,77.00
2023-02-16T02:40:48.618Z,69.50
2023-02-16T02:43:42.852Z,78.50
2023-02-16T02:46:35.146Z,74.00
2023-02-16T02:49:04.409Z,78.00
2023-02-16T02:51:34.238Z,74.50
2023-02-16T02:54:40.146Z,69.20
2023-02-16T03:00:41.394Z,73.20
2023-02-16T03:03:31.881Z,76.10
2023-02-16T03:06:05.467Z,75.20
2023-02-16T03:08:39.680Z,113.00
2023-02-16T03:11:42.895Z,83.60
2023-02-16T03:14:18.170Z,74.60
2023-02-16T03:17:19.173Z,72.80
2023-02-16T03:20:09.675Z,65.70
2023-02-16T03:22:58.686Z,76.40
2023-02-16T03:25:54.625Z,110.70
2023-02-16T03:31:21.911Z,74.10
2023-02-16T03:47:16.375Z,79.60
2023-02-16T03:50:28.672Z,76.30
2023-02-16T03:53:11.239Z,73.90
2023-02-16T03:56:04.474Z,76.60
2023-02-16T03:58:44.546Z,69.90
2023-02-16T04:03:41.712Z,70.60
2023-02-16T04:06:10.216Z,86.10
2023-02-16T04:08:38.349Z,85.40
2023-02-16T04:11:26.408Z,75.40
2023-02-16T04:13:54.334Z,69.60
2023-02-16T04:16:23.461Z,172.20
2023-02-16T04:18:51.921Z,75.70
2023-02-16T04:21:20.580Z,66.80
2023-02-16T04:23:52.445Z,68.10
2023-02-16T04:26:21.788Z,67.50
2023-02-16T04:28:50.478Z,63.20
2023-02-16T04:31:19.661Z,75.90
2023-02-16T04:38:02.177Z,73.70
2023-02-16T04:40:42.315Z,61.20
2023-02-16T04:43:46.215Z,72.70
2023-02-16T04:46:42.601Z,67.60
2023-02-16T04:49:30.464Z,70.00
2023-02-16T04:52:05.870Z,71.40
2023-02-16T04:54:34.220Z,69.30
2023-02-16T04:57:02.282Z,77.20
2023-02-16T04:59:30.641Z,69.10
2023-02-16T05:01:59.984Z,77.40
2023-02-16T05:04:28.505Z,68.00
2023-02-16T05:06:56.439Z,78.30
2023-02-16T05:09:24.738Z,66.50
2023-02-16T05:12:11.344Z,74.40
2023-02-16T05:14:42.524Z,67.30
2023-02-16T05:17:23.224Z,66.60
2023-02-16T05:19:56.195Z,72.00
2023-02-16T05:22:33.645Z,73.40
2023-02-16T05:25:02.506Z,68.90
2023-02-16T05:27:31.289Z,63.00
2023-02-16T05:29:59.846Z,75.60
2023-02-16T05:32:28.836Z,67.00
2023-02-16T05:35:49.889Z,70.50
2023-02-16T05:38:33.286Z,65.00
2023-02-16T05:41:08.709Z,64.80
2023-02-16T05:43:37.103Z,72.60
2023-02-16T05:46:09.995Z,71.20
2023-02-16T05:48:40.295Z,71.60
2023-02-16T05:51:08.303Z,72.20
2023-02-16T05:53:36.195Z,75.60
2023-02-16T05:56:08.338Z,72.30
2023-02-16T05:58:39.863Z,70.50
2023-02-16T06:01:07.829Z,70.70
2023-02-16T06:03:37.162Z,58.60
2023-02-16T06:06:09.799Z,63.00
2023-02-16T06:08:50.047Z,70.30
2023-02-16T06:11:36.712Z,69.50
2023-02-16T06:14:10.471Z,78.70
2023-02-16T06:16:42.003Z,67.70
2023-02-16T06:19:12.780Z,67.90
2023-02-16T06:21:41.665Z,66.50
2023-02-16T06:24:12.890Z,72.90
2023-02-16T06:26:41.681Z,97.30
2023-02-16T06:29:11.050Z,76.30
2023-02-16T06:31:41.228Z,63.30
2023-02-16T06:34:09.293Z,71.60
2023-02-16T06:36:37.677Z,65.20
2023-02-16T06:39:05.619Z,64.30
2023-02-16T06:41:40.012Z,72.60
2023-02-16T06:44:15.175Z,64.80
2023-02-16T06:46:46.918Z,63.40
2023-02-16T06:49:20.729Z,64.80
2023-02-16T06:51:50.206Z,66.70
2023-02-16T06:54:19.050Z,61.60
2023-02-16T06:56:47.114Z,57.90
2023-02-16T06:59:16.589Z,71.60
2023-02-16T07:01:49.144Z,70.00
2023-02-16T07:04:18.178Z,60.30
2023-02-16T07:06:46.682Z,59.70
2023-02-16T07:09:14.895Z,61.40
2023-02-16T07:11:42.927Z,65.50
2023-02-16T07:14:10.995Z,59.50
2023-02-16T07:16:39.393Z,60.90
2023-02-16T07:19:07.659Z,52.70
2023-02-16T07:21:35.732Z,67.50
2023-02-16T07:24:04.131Z,61.20
2023-02-16T07:26:32.365Z,60.70
2023-02-16T07:29:00.746Z,67.60
2023-02-16T07:31:29.259Z,69.30
2023-02-16T07:33:57.336Z,59.10
2023-02-16T07:36:25.586Z,53.40
2023-02-16T07:38:54.914Z,60.40
2023-02-16T07:41:22.944Z,55.80
2023-02-16T07:43:51.012Z,67.90
2023-02-16T07:46:19.293Z,52.90
2023-02-16T07:48:49.346Z,61.90
2023-02-16T07:51:27.003Z,61.00
2023-02-16T07:53:55.276Z,60.80
2023-02-16T07:56:57.169Z,50.70
2023-02-16T07:59:54.189Z,60.20
2023-02-16T08:02:24.365Z,49.40
2023-02-16T08:04:52.743Z,53.30
2023-02-16T08:07:21.459Z,55.20
2023-02-16T08:09:49.699Z,51.60
2023-02-16T08:12:19.781Z,53.30
2023-02-16T08:14:47.883Z,50.30
2023-02-16T08:17:16.278Z,54.50
2023-02-16T08:19:44.230Z,46.80
2023-02-16T08:22:12.242Z,52.30
2023-02-16T08:24:40.325Z,49.80
2023-02-16T08:27:08.382Z,52.30
2023-02-16T08:29:36.660Z,93.70
2023-02-16T08:32:07.876Z,69.40
2023-02-16T08:34:36.859Z,52.20
2023-02-16T08:37:05.190Z,45.90
2023-02-16T08:39:36.325Z,48.10
2023-02-16T08:42:04.852Z,50.00
2023-02-16T08:44:33.113Z,47.20
2023-02-16T08:47:02.691Z,52.60
2023-02-16T08:49:31.081Z,55.90
2023-02-16T08:52:03.062Z,40.80
2023-02-16T08:54:43.669Z,63.90
2023-02-16T08:57:40.998Z,51.60
2023-02-16T09:00:38.148Z,44.30
2023-02-16T09:04:18.378Z,48.30
2023-02-16T09:07:11.814Z,48.10
2023-02-16T09:09:52.284Z,42.90
2023-02-16T09:13:46.899Z,36.80
2023-02-16T09:16:22.531Z,45.90
2023-02-16T09:18:53.126Z,57.40
2023-02-16T09:21:25.683Z,48.80
2023-02-16T09:23:56.444Z,46.80
2023-02-16T09:26:25.456Z,46.80
2023-02-16T09:28:54.599Z,42.50
2023-02-16T09:31:29.348Z,44.80
2023-02-16T09:34:13.374Z,39.00
2023-02-16T09:36:42.338Z,34.60
2023-02-16T09:39:10.990Z,36.10
2023-02-16T09:42:00.260Z,39.40
2023-02-16T09:45:07.722Z,45.20
2023-02-16T09:47:44.958Z,37.90
2023-02-16T09:50:52.074Z,43.30
2023-02-16T09:53:32.779Z,40.10
2023-02-16T09:56:16.776Z,41.30
2023-02-16T09:58:58.514Z,41.10
2023-02-16T10:01:58.685Z,40.50
2023-02-16T10:04:46.053Z,42.90
2023-02-16T10:07:52.796Z,36.20
2023-02-16T10:10:47.859Z,47.30
2023-02-16T10:13:32.866Z,48.30
2023-02-16T10:16:02.958Z,42.40
2023-02-16T10:18:37.195Z,42.30
2023-02-16T10:21:15.312Z,61.00
2023-02-16T10:23:58.120Z,47.90
2023-02-16T10:26:39.558Z,35.30
2023-02-16T10:29:15.788Z,37.70
2023-02-16T10:32:29.301Z,41.20
2023-02-16T10:35:19.872Z,38.70
2023-02-16T10:38:13.903Z,43.50
2023-02-16T10:41:01.244Z,40.30
2023-02-16T10:44:02.061Z,43.30
2023-02-16T10:46:41.016Z,39.20
2023-02-16T10:49:15.659Z,44.60
2023-02-16T10:52:19.048Z,35.90
2023-02-16T10:55:19.378Z,44.20
2023-02-16T10:58:47.038Z,39.30
2023-02-16T11:02:05.081Z,37.90
2023-02-16T11:04:54.417Z,43.50
2023-02-16T11:07:28.289Z,36.80
2023-02-16T11:10:01.374Z,59.00
2023-02-16T11:12:39.620Z,153.10
2023-02-16T11:15:13.876Z,61.30
2023-02-16T11:18:06.142Z,53.20
2023-02-16T11:20:53.033Z,43.70
2023-02-16T11:23:26.859Z,36.20
2023-02-16T11:26:05.649Z,41.10
2023-02-16T11:28:44.121Z,43.30
2023-02-16T11:31:39.896Z,44.40
2023-02-16T11:34:29.033Z,37.20
2023-02-16T11:37:09.041Z,39.70
2023-02-16T11:39:41.423Z,41.80
2023-02-16T11:42:52.127Z,40.00
2023-02-16T11:45:34.036Z,49.30
2023-02-16T11:48:11.219Z,38.60
2023-02-16T11:50:55.298Z,34.10
2023-02-16T11:53:29.138Z,39.30
2023-02-16T11:56:27.141Z,45.90
2023-02-16T11:59:19.141Z,37.10
2023-02-16T12:02:18.904Z,50.00
2023-02-16T12:05:26.933Z,39.90
2023-02-16T12:08:09.986Z,39.90
2023-02-16T12:13:38.895Z,39.90
2023-02-16T12:16:32.751Z,39.30
2023-02-16T12:19:39.589Z,44.50
2023-02-16T12:22:09.731Z,43.90
2023-02-16T12:24:57.732Z,43.50
2023-02-16T12:27:45.293Z,35.40
2023-02-16T12:30:55.401Z,42.40
2023-02-16T12:33:59.366Z,39.20
2023-02-16T12:36:44.229Z,49.30
2023-02-16T12:39:43.206Z,45.40
2023-02-16T12:42:37.823Z,44.80
2023-02-16T12:45:23.074Z,43.90
2023-02-16T12:48:19.836Z,41.80
2023-02-16T12:50:52.370Z,86.70
2023-02-16T12:54:13.590Z,59.60
2023-02-16T12:56:47.751Z,41.60
2023-02-16T12:59:41.819Z,53.30
2023-02-16T13:02:23.202Z,45.50
2023-02-16T13:05:16.766Z,43.80
2023-02-16T13:10:36.074Z,47.00
2023-02-16T13:13:19.936Z,44.80
2023-02-16T13:15:59.237Z,50.20
2023-02-16T13:18:33.336Z,46.40
2023-02-16T13:21:15.465Z,48.60
2023-02-16T13:23:57.951Z,51.70
2023-02-16T13:26:44.796Z,44.00
2023-02-16T13:30:04.172Z,48.20
2023-02-16T13:33:14.570Z,44.30
2023-02-16T13:36:12.015Z,139.30
2023-02-16T13:39:18.786Z,46.10
2023-02-16T13:42:11.882Z,51.20
2023-02-16T13:45:11.704Z,47.70
2023-02-16T13:47:41.978Z,45.30
2023-02-16T13:50:22.846Z,50.20
2023-02-16T13:52:53.634Z,43.30
2023-02-16T13:55:30.825Z,48.10
2023-02-16T13:58:26.054Z,46.60
2023-02-16T14:00:54.690Z,45.50
2023-02-16T14:03:22.734Z,182.20
2023-02-16T14:05:54.259Z,48.90
2023-02-16T14:08:30.750Z,43.80
2023-02-16T14:11:07.009Z,46.50
2023-02-16T14:13:38.046Z,44.80
2023-02-16T14:16:11.981Z,44.40
2023-02-16T14:19:04.433Z,46.10
2023-02-16T14:21:44.083Z,44.30
2023-02-16T14:24:25.516Z,50.30
2023-02-16T14:27:05.814Z,42.40
2023-02-16T14:30:05.011Z,49.70
2023-02-16T14:32:38.558Z,43.80
2023-02-16T14:35:29.892Z,43.50
2023-02-16T14:38:24.839Z,41.50
2023-02-16T14:41:17.838Z,50.00
2023-02-16T14:43:50.330Z,50.30
2023-02-16T14:46:56.942Z,46.10
2023-02-16T14:50:22.751Z,48.60
2023-02-16T14:53:21.721Z,46.40
2023-02-16T14:56:42.031Z,43.80
2023-02-16T14:59:53.860Z,54.60
2023-02-16T15:02:47.928Z,49.20
2023-02-16T15:05:36.697Z,47.30
2023-02-16T15:08:19.203Z,46.10
2023-02-16T15:10:47.163Z,50.60
2023-02-16T15:13:38.559Z,55.80
2023-02-16T15:16:09.297Z,48.10
2023-02-16T15:18:43.750Z,49.40
2023-02-16T15:21:26.891Z,48.40
2023-02-16T15:26:30.788Z,44.30
2023-02-16T15:29:30.247Z,47.50
2023-02-16T15:32:01.076Z,52.20
2023-02-16T15:34:35.571Z,41.80
2023-02-16T15:37:28.481Z,46.00
2023-02-16T15:40:25.854Z,54.10
2023-02-16T15:42:56.170Z,52.00
2023-02-16T15:45:52.394Z,48.00
2023-02-16T15:48:26.652Z,43.40
2023-02-16T15:51:06.942Z,53.30
2023-02-16T15:53:51.430Z,44.40
2023-02-16T15:56:44.197Z,50.80
2023-02-16T15:59:38.535Z,46.20
2023-02-16T16:02:26.612Z,54.30
2023-02-16T16:05:02.368Z,54.70
2023-02-16T16:07:41.657Z,50.60
2023-02-16T16:10:26.261Z,55.20
2023-02-16T16:13:06.683Z,57.50
2023-02-16T16:15:41.648Z,57.20
2023-02-16T16:18:39.070Z,56.00
2023-02-16T16:21:34.469Z,57.90
2023-02-16T16:24:08.934Z,70.90
2023-02-16T16:26:57.253Z,67.00
2023-02-16T16:29:44.228Z,52.60
2023-02-16T16:32:28.585Z,58.70
2023-02-16T16:34:56.963Z,69.50
2023-02-16T16:37:35.650Z,53.60
2023-02-16T16:40:22.503Z,49.30
2023-02-16T16:43:02.934Z,58.80
2023-02-16T16:45:49.623Z,64.70
2023-02-16T16:48:31.607Z,58.00
2023-02-16T16:51:16.915Z,56.90
2023-02-16T16:54:00.846Z,63.10
2023-02-16T16:56:31.991Z,59.20
2023-02-16T16:59:00.169Z,56.00
2023-02-16T17:01:30.049Z,50.20
2023-02-16T17:03:58.546Z,58.00
2023-02-16T17:06:27.610Z,69.30
2023-02-16T17:08:55.590Z,95.00
2023-02-16T17:11:32.313Z,65.10
2023-02-16T17:14:17.241Z,61.40
2023-02-16T17:16:49.485Z,56.90
2023-02-16T17:19:21.509Z,55.30
2023-02-16T17:21:53.084Z,56.10
2023-02-16T17:24:21.938Z,57.80
2023-02-16T17:26:50.190Z,63.80
2023-02-16T17:29:18.220Z,54.40
2023-02-16T17:31:46.223Z,58.10
2023-02-16T17:34:14.223Z,52.50
2023-02-16T17:36:42.289Z,137.90
2023-02-16T17:39:10.350Z,65.80
2023-02-16T17:41:38.391Z,60.30
2023-02-16T17:44:06.380Z,60.40
2023-02-16T17:46:34.502Z,60.40
2023-02-16T17:49:02.624Z,56.20
2023-02-16T17:51:32.145Z,56.90
2023-02-16T17:54:00.232Z,54.40
2023-02-16T17:56:28.438Z,58.20
2023-02-16T17:58:56.689Z,57.60
2023-02-16T18:01:24.923Z,56.10
2023-02-16T18:03:53.129Z,61.70
2023-02-16T18:06:28.917Z,60.60
2023-02-16T18:08:57.326Z,54.10
2023-02-16T18:11:25.469Z,52.80
2023-02-16T18:13:53.423Z,58.50
2023-02-16T18:16:26.381Z,53.90
2023-02-16T18:18:57.061Z,53.20
2023-02-16T18:21:25.127Z,51.10
2023-02-16T18:23:53.092Z,58.30
2023-02-16T18:26:21.245Z,65.60
2023-02-16T18:28:49.146Z,64.40
2023-02-16T18:31:17.423Z,60.30
2023-02-16T18:33:46.763Z,58.00
2023-02-16T18:36:14.729Z,64.40
2023-02-16T18:38:43.996Z,67.70
2023-02-16T18:41:13.217Z,67.80
2023-02-16T18:43:41.251Z,67.50
2023-02-16T18:46:10.521Z,63.80
2023-02-16T18:48:39.323Z,64.10
2023-02-16T18:51:10.558Z,62.80
2023-02-16T18:53:40.346Z,62.10
2023-02-16T18:56:10.796Z,67.10
2023-02-16T18:58:39.031Z,69.20
2023-02-16T19:01:29.327Z,59.80
2023-02-16T19:04:03.678Z,63.90
2023-02-16T19:06:32.077Z,68.60
2023-02-16T19:09:01.437Z,66.30
2023-02-16T19:11:30.785Z,62.00
2023-02-16T19:13:59.893Z,61.70
2023-02-16T19:16:30.657Z,60.80
2023-02-16T19:18:58.654Z,56.50
2023-02-16T19:21:26.736Z,79.20
2023-02-16T19:23:54.892Z,56.30
2023-02-16T19:26:23.102Z,54.90
2023-02-16T19:28:53.396Z,58.50
2023-02-16T19:31:28.458Z,66.00
2023-02-16T19:33:58.971Z,59.50
2023-02-16T19:36:31.433Z,92.20
2023-02-16T19:39:00.826Z,57.40
2023-02-16T19:41:36.079Z,98.40
2023-02-16T19:46:35.562Z,57.60
2023-02-16T19:49:05.751Z,56.00
2023-02-16T19:51:36.874Z,60.80
2023-02-16T19:54:05.090Z,61.90
2023-02-16T19:56:33.135Z,54.40
2023-02-16T19:59:01.166Z,64.80
2023-02-16T20:01:29.240Z,52.40
2023-02-16T20:03:58.549Z,50.10
2023-02-16T20:06:34.262Z,63.00
2023-02-16T20:09:02.442Z,55.40
2023-02-16T20:11:30.877Z,58.50
2023-02-16T20:13:59.698Z,54.60
2023-02-16T20:16:30.202Z,57.40
2023-02-16T20:19:00.549Z,53.10
2023-02-16T20:21:51.351Z,54.10
2023-02-16T20:24:20.442Z,59.40
2023-02-16T20:26:51.130Z,56.50
2023-02-16T20:29:20.653Z,52.80
2023-02-16T20:31:55.224Z,54.60
2023-02-16T20:34:27.416Z,52.00
2023-02-16T20:36:55.512Z,51.60
2023-02-16T20:39:24.039Z,56.30
2023-02-16T20:41:52.091Z,54.70
2023-02-16T20:44:22.593Z,49.50
2023-02-16T20:46:51.120Z,102.30
2023-02-16T20:49:19.156Z,154.00
2023-02-16T20:51:47.186Z,58.40
2023-02-16T20:54:16.520Z,57.30
2023-02-16T20:56:45.651Z,56.20
2023-02-16T20:59:13.838Z,50.30
2023-02-16T21:01:46.940Z,50.10
2023-02-16T21:04:19.534Z,49.80
2023-02-16T21:06:48.007Z,48.60
2023-02-16T21:09:16.368Z,47.60
2023-02-16T21:11:44.641Z,47.40
2023-02-16T21:14:13.202Z,44.30
2023-02-16T21:16:41.715Z,60.20
2023-02-16T21:19:22.179Z,44.20
2023-02-16T21:21:52.443Z,45.90
2023-02-16T21:24:20.728Z,50.60
2023-02-16T21:26:48.842Z,46.30
2023-02-16T21:29:17.652Z,47.10
2023-02-16T21:31:45.777Z,45.10
2023-02-16T21:34:13.870Z,40.40
2023-02-16T21:36:41.903Z,44.20
2023-02-16T21:39:11.382Z,43.90
2023-02-16T21:41:39.429Z,45.20
2023-02-16T21:44:16.723Z,48.60
2023-02-16T21:46:47.358Z,51.60
2023-02-16T21:49:19.528Z,48.70
2023-02-16T21:51:48.497Z,45.80
2023-02-16T21:54:43.404Z,42.00
2023-02-16T21:57:11.378Z,49.20
2023-02-16T21:59:39.734Z,49.40
2023-02-16T22:02:10.292Z,41.50
2023-02-16T22:04:38.295Z,41.00
2023-02-16T22:07:06.121Z,76.40
2023-02-16T22:09:34.203Z,43.20
2023-02-16T22:12:02.058Z,45.60
2023-02-16T22:14:30.257Z,47.80
2023-02-16T22:17:00.738Z,50.80
2023-02-16T22:19:29.142Z,44.10
2023-02-16T22:21:57.293Z,51.40
2023-02-16T22:24:25.376Z,46.20
2023-02-16T22:26:53.502Z,86.60
2023-02-16T22:29:21.516Z,48.30
2023-02-16T22:31:50.140Z,53.70
2023-02-16T22:34:21.091Z,47.60
2023-02-16T22:36:49.508Z,42.20
2023-02-16T22:39:19.290Z,96.20
2023-02-16T22:41:51.471Z,57.80
2023-02-16T22:44:19.543Z,39.80
2023-02-16T22:47:00.346Z,43.30
2023-02-16T22:49:33.052Z,40.60
2023-02-16T22:52:05.202Z,45.10
2023-02-16T22:54:34.462Z,42.20
2023-02-16T22:57:02.520Z,45.60
2023-02-16T22:59:30.706Z,43.90
2023-02-16T23:01:59.183Z,39.50
2023-02-16T23:04:27.354Z,46.90
2023-02-16T23:06:55.587Z,44.30
2023-02-16T23:09:27.805Z,40.20
2023-02-16T23:11:59.376Z,40.80
2023-02-16T23:14:35.594Z,42.50
2023-02-16T23:17:04.906Z,41.60
2023-02-16T23:19:34.926Z,90.80
2023-02-16T23:22:07.685Z,50.00
2023-02-16T23:27:08.574Z,40.40
2023-02-16T23:38:24.712Z,37.60
2023-02-16T23:41:05.724Z,60.40
2023-02-16T23:43:35.102Z,50.10
2023-02-16T23:46:05.343Z,41.30
2023-02-16T23:48:34.211Z,43.70
2023-02-16T23:51:05.206Z,45.50
2023-02-16T23:53:34.151Z,45.00
2023-02-16T23:56:11.402Z,46.90
2023-02-16T23:58:45.987Z,45.20
